sensor_id;sensor_type;location;lat;lon;timestamp;P1;durP1;ratioP1;P2;durP2;ratioP2
32727;SDS011;55292;51.844;19.246;2022-07-12T00:04:47;3.25;;;2.30;;
32727;SDS011;55292;51.844;19.246;2022-07-12T00:09:49;4.10;;;2.90;;
32727;SDS011;55292;51.844;19.246;2022-07-12T00:14:52;7.70;;;2.50;;
32727;SDS011;55292;51.844;19.246;2022-07-12T00:19:54;8.15;;;2.60;;
32727;SDS011;55292;51.844;19.246;2022-07-12T00:24:57;2.85;;;2.30;;
32727;SDS011;55292;51.844;19.246;2022-07-12T00:30:02;6.35;;;2.33;;
32727;SDS011;55292;51.844;19.246;2022-07-12T00:35:06;4.10;;;2.50;;
32727;SDS011;55292;51.844;19.246;2022-07-12T00:40:09;5.15;;;1.95;;
32727;SDS011;55292;51.844;19.246;2022-07-12T00:45:12;4.00;;;2.20;;
32727;SDS011;55292;51.844;19.246;2022-07-12T00:50:16;3.60;;;2.15;;
32727;SDS011;55292;51.844;19.246;2022-07-12T00:55:21;5.50;;;2.15;;
32727;SDS011;55292;51.844;19.246;2022-07-12T01:00:25;4.90;;;1.92;;
32727;SDS011;55292;51.844;19.246;2022-07-12T01:05:29;4.22;;;1.95;;
32727;SDS011;55292;51.844;19.246;2022-07-12T01:10:32;2.33;;;1.77;;
32727;SDS011;55292;51.844;19.246;2022-07-12T01:15:36;5.18;;;2.58;;
32727;SDS011;55292;51.844;19.246;2022-07-12T01:20:40;3.50;;;2.20;;
32727;SDS011;55292;51.844;19.246;2022-07-12T01:25:42;2.78;;;1.90;;
32727;SDS011;55292;51.844;19.246;2022-07-12T01:30:46;4.30;;;1.90;;
32727;SDS011;55292;51.844;19.246;2022-07-12T01:35:49;3.63;;;1.80;;
32727;SDS011;55292;51.844;19.246;2022-07-12T01:40:52;2.03;;;1.80;;
32727;SDS011;55292;51.844;19.246;2022-07-12T01:45:54;3.45;;;2.00;;
32727;SDS011;55292;51.844;19.246;2022-07-12T01:50:57;4.05;;;1.75;;
32727;SDS011;55292;51.844;19.246;2022-07-12T01:55:59;2.10;;;1.90;;
32727;SDS011;55292;51.844;19.246;2022-07-12T02:01:02;2.67;;;1.67;;
32727;SDS011;55292;51.844;19.246;2022-07-12T02:06:05;7.43;;;1.90;;
32727;SDS011;55292;51.844;19.246;2022-07-12T02:11:07;4.70;;;2.13;;
32727;SDS011;55292;51.844;19.246;2022-07-12T02:16:10;5.53;;;2.17;;
32727;SDS011;55292;51.844;19.246;2022-07-12T02:21:13;8.43;;;2.15;;
32727;SDS011;55292;51.844;19.246;2022-07-12T02:26:15;5.20;;;2.03;;
32727;SDS011;55292;51.844;19.246;2022-07-12T02:31:18;2.03;;;1.75;;
32727;SDS011;55292;51.844;19.246;2022-07-12T02:36:20;4.10;;;2.17;;
32727;SDS011;55292;51.844;19.246;2022-07-12T02:41:23;6.50;;;2.38;;
32727;SDS011;55292;51.844;19.246;2022-07-12T02:46:26;6.00;;;2.25;;
32727;SDS011;55292;51.844;19.246;2022-07-12T02:51:29;6.45;;;2.50;;
32727;SDS011;55292;51.844;19.246;2022-07-12T02:56:32;4.22;;;2.25;;
32727;SDS011;55292;51.844;19.246;2022-07-12T03:01:34;11.55;;;3.15;;
32727;SDS011;55292;51.844;19.246;2022-07-12T03:06:38;6.72;;;2.38;;
32727;SDS011;55292;51.844;19.246;2022-07-12T03:11:41;2.75;;;2.53;;
32727;SDS011;55292;51.844;19.246;2022-07-12T03:16:43;3.67;;;2.35;;
32727;SDS011;55292;51.844;19.246;2022-07-12T03:21:46;5.40;;;2.45;;
32727;SDS011;55292;51.844;19.246;2022-07-12T03:26:48;4.93;;;2.38;;
32727;SDS011;55292;51.844;19.246;2022-07-12T03:31:51;4.57;;;2.70;;
32727;SDS011;55292;51.844;19.246;2022-07-12T03:36:53;6.35;;;2.53;;
32727;SDS011;55292;51.844;19.246;2022-07-12T03:41:56;3.67;;;2.40;;
32727;SDS011;55292;51.844;19.246;2022-07-12T03:46:59;2.40;;;2.20;;
32727;SDS011;55292;51.844;19.246;2022-07-12T03:52:02;4.18;;;2.17;;
32727;SDS011;55292;51.844;19.246;2022-07-12T03:57:05;3.30;;;2.50;;
32727;SDS011;55292;51.844;19.246;2022-07-12T04:02:16;2.22;;;2.00;;
32727;SDS011;55292;51.844;19.246;2022-07-12T04:07:18;2.28;;;1.70;;
32727;SDS011;55292;51.844;19.246;2022-07-12T04:12:22;2.88;;;2.28;;
32727;SDS011;55292;51.844;19.246;2022-07-12T04:17:24;2.80;;;2.00;;
32727;SDS011;55292;51.844;19.246;2022-07-12T04:22:27;1.50;;;1.40;;
32727;SDS011;55292;51.844;19.246;2022-07-12T04:27:30;2.70;;;1.80;;
32727;SDS011;55292;51.844;19.246;2022-07-12T04:32:32;2.45;;;1.70;;
32727;SDS011;55292;51.844;19.246;2022-07-12T04:37:35;1.50;;;1.40;;
32727;SDS011;55292;51.844;19.246;2022-07-12T04:42:37;4.88;;;1.90;;
32727;SDS011;55292;51.844;19.246;2022-07-12T04:47:40;2.10;;;1.67;;
32727;SDS011;55292;51.844;19.246;2022-07-12T04:52:42;3.67;;;2.05;;
32727;SDS011;55292;51.844;19.246;2022-07-12T04:57:45;4.63;;;2.85;;
32727;SDS011;55292;51.844;19.246;2022-07-12T05:02:48;5.63;;;3.67;;
32727;SDS011;55292;51.844;19.246;2022-07-12T05:07:51;5.07;;;3.15;;
32727;SDS011;55292;51.844;19.246;2022-07-12T05:12:53;4.57;;;2.67;;
32727;SDS011;55292;51.844;19.246;2022-07-12T05:17:56;6.10;;;2.67;;
32727;SDS011;55292;51.844;19.246;2022-07-12T05:22:59;3.90;;;2.17;;
32727;SDS011;55292;51.844;19.246;2022-07-12T05:28:02;4.45;;;2.42;;
32727;SDS011;55292;51.844;19.246;2022-07-12T05:33:05;8.63;;;3.95;;
32727;SDS011;55292;51.844;19.246;2022-07-12T05:38:07;9.80;;;4.82;;
32727;SDS011;55292;51.844;19.246;2022-07-12T05:43:11;7.05;;;4.00;;
32727;SDS011;55292;51.844;19.246;2022-07-12T05:48:14;6.35;;;3.58;;
32727;SDS011;55292;51.844;19.246;2022-07-12T05:53:17;8.57;;;4.45;;
32727;SDS011;55292;51.844;19.246;2022-07-12T05:58:26;5.07;;;3.55;;
32727;SDS011;55292;51.844;19.246;2022-07-12T06:03:28;7.75;;;4.10;;
32727;SDS011;55292;51.844;19.246;2022-07-12T06:08:31;5.32;;;3.60;;
32727;SDS011;55292;51.844;19.246;2022-07-12T06:13:34;6.97;;;3.40;;
32727;SDS011;55292;51.844;19.246;2022-07-12T06:18:37;4.53;;;3.05;;
32727;SDS011;55292;51.844;19.246;2022-07-12T06:23:40;7.18;;;3.70;;
32727;SDS011;55292;51.844;19.246;2022-07-12T06:28:42;5.13;;;3.03;;
32727;SDS011;55292;51.844;19.246;2022-07-12T06:33:45;5.07;;;2.90;;
32727;SDS011;55292;51.844;19.246;2022-07-12T06:38:47;6.07;;;3.28;;
32727;SDS011;55292;51.844;19.246;2022-07-12T06:43:51;7.57;;;2.95;;
32727;SDS011;55292;51.844;19.246;2022-07-12T06:48:53;9.75;;;3.30;;
32727;SDS011;55292;51.844;19.246;2022-07-12T06:53:56;4.05;;;2.47;;
32727;SDS011;55292;51.844;19.246;2022-07-12T06:58:58;6.57;;;3.00;;
32727;SDS011;55292;51.844;19.246;2022-07-12T07:04:01;5.35;;;2.72;;
32727;SDS011;55292;51.844;19.246;2022-07-12T07:09:04;3.28;;;1.70;;
32727;SDS011;55292;51.844;19.246;2022-07-12T07:14:09;3.42;;;2.25;;
32727;SDS011;55292;51.844;19.246;2022-07-12T07:19:12;3.08;;;1.77;;
32727;SDS011;55292;51.844;19.246;2022-07-12T07:24:20;3.97;;;1.77;;
32727;SDS011;55292;51.844;19.246;2022-07-12T07:29:24;4.18;;;2.10;;
32727;SDS011;55292;51.844;19.246;2022-07-12T07:34:45;5.18;;;1.67;;
32727;SDS011;55292;51.844;19.246;2022-07-12T07:39:48;4.50;;;1.70;;
32727;SDS011;55292;51.844;19.246;2022-07-12T07:44:50;2.67;;;1.60;;
32727;SDS011;55292;51.844;19.246;2022-07-12T07:50:13;3.40;;;1.20;;
32727;SDS011;55292;51.844;19.246;2022-07-12T07:55:17;2.60;;;1.40;;
32727;SDS011;55292;51.844;19.246;2022-07-12T08:00:20;2.47;;;1.15;;
32727;SDS011;55292;51.844;19.246;2022-07-12T08:05:23;2.78;;;1.20;;
32727;SDS011;55292;51.844;19.246;2022-07-12T08:10:30;1.30;;;1.20;;
32727;SDS011;55292;51.844;19.246;2022-07-12T08:15:32;2.88;;;1.10;;
32727;SDS011;55292;51.844;19.246;2022-07-12T08:20:36;2.22;;;1.30;;
32727;SDS011;55292;51.844;19.246;2022-07-12T08:25:49;1.10;;;1.00;;
32727;SDS011;55292;51.844;19.246;2022-07-12T08:30:51;4.35;;;1.27;;
32727;SDS011;55292;51.844;19.246;2022-07-12T08:35:54;1.48;;;1.00;;
32727;SDS011;55292;51.844;19.246;2022-07-12T08:40:56;2.05;;;1.27;;
32727;SDS011;55292;51.844;19.246;2022-07-12T08:46:05;2.13;;;1.15;;
32727;SDS011;55292;51.844;19.246;2022-07-12T08:51:09;1.40;;;0.90;;
32727;SDS011;55292;51.844;19.246;2022-07-12T08:56:32;2.17;;;1.20;;
32727;SDS011;55292;51.844;19.246;2022-07-12T09:01:54;1.73;;;1.00;;
32727;SDS011;55292;51.844;19.246;2022-07-12T09:06:57;2.67;;;1.10;;
32727;SDS011;55292;51.844;19.246;2022-07-12T09:12:22;3.17;;;1.25;;
32727;SDS011;55292;51.844;19.246;2022-07-12T09:17:25;4.43;;;1.50;;
32727;SDS011;55292;51.844;19.246;2022-07-12T09:22:28;1.27;;;1.08;;
32727;SDS011;55292;51.844;19.246;2022-07-12T09:27:30;3.45;;;1.00;;
32727;SDS011;55292;51.844;19.246;2022-07-12T09:32:33;2.00;;;0.85;;
32727;SDS011;55292;51.844;19.246;2022-07-12T09:37:53;1.52;;;1.20;;
32727;SDS011;55292;51.844;19.246;2022-07-12T09:42:56;7.88;;;1.30;;
32727;SDS011;55292;51.844;19.246;2022-07-12T09:47:59;0.80;;;0.80;;
32727;SDS011;55292;51.844;19.246;2022-07-12T09:53:02;5.43;;;0.88;;
32727;SDS011;55292;51.844;19.246;2022-07-12T09:58:06;2.33;;;0.80;;
32727;SDS011;55292;51.844;19.246;2022-07-12T10:03:10;2.00;;;0.85;;
32727;SDS011;55292;51.844;19.246;2022-07-12T10:08:15;0.80;;;0.73;;
32727;SDS011;55292;51.844;19.246;2022-07-12T10:13:19;2.95;;;1.10;;
32727;SDS011;55292;51.844;19.246;2022-07-12T10:18:22;0.73;;;0.70;;
32727;SDS011;55292;51.844;19.246;2022-07-12T10:34:12;0.90;;;0.77;;
32727;SDS011;55292;51.844;19.246;2022-07-12T10:39:25;1.20;;;0.93;;
32727;SDS011;55292;51.844;19.246;2022-07-12T10:49:43;9.52;;;1.60;;
32727;SDS011;55292;51.844;19.246;2022-07-12T10:59:58;2.90;;;0.80;;
32727;SDS011;55292;51.844;19.246;2022-07-12T11:05:02;1.20;;;0.60;;
32727;SDS011;55292;51.844;19.246;2022-07-12T11:10:05;2.42;;;0.55;;
32727;SDS011;55292;51.844;19.246;2022-07-12T11:15:08;1.55;;;0.75;;
32727;SDS011;55292;51.844;19.246;2022-07-12T11:20:12;0.65;;;0.60;;
32727;SDS011;55292;51.844;19.246;2022-07-12T11:25:15;2.30;;;0.50;;
32727;SDS011;55292;51.844;19.246;2022-07-12T11:30:17;0.93;;;0.70;;
32727;SDS011;55292;51.844;19.246;2022-07-12T11:35:21;2.10;;;0.60;;
32727;SDS011;55292;51.844;19.246;2022-07-12T11:40:25;1.65;;;0.70;;
32727;SDS011;55292;51.844;19.246;2022-07-12T11:45:32;2.13;;;0.73;;
32727;SDS011;55292;51.844;19.246;2022-07-12T11:50:35;1.88;;;0.85;;
32727;SDS011;55292;51.844;19.246;2022-07-12T11:55:41;3.35;;;0.73;;
32727;SDS011;55292;51.844;19.246;2022-07-12T12:00:49;0.50;;;0.50;;
32727;SDS011;55292;51.844;19.246;2022-07-12T12:05:54;1.10;;;0.55;;
32727;SDS011;55292;51.844;19.246;2022-07-12T12:10:59;5.68;;;0.70;;
32727;SDS011;55292;51.844;19.246;2022-07-12T12:16:03;2.20;;;0.63;;
32727;SDS011;55292;51.844;19.246;2022-07-12T12:21:09;0.82;;;0.70;;
32727;SDS011;55292;51.844;19.246;2022-07-12T12:26:17;1.45;;;0.60;;
32727;SDS011;55292;51.844;19.246;2022-07-12T12:31:23;1.63;;;0.80;;
32727;SDS011;55292;51.844;19.246;2022-07-12T12:36:29;1.20;;;0.90;;
32727;SDS011;55292;51.844;19.246;2022-07-12T12:41:38;0.73;;;0.73;;
32727;SDS011;55292;51.844;19.246;2022-07-12T12:51:56;0.60;;;0.60;;
32727;SDS011;55292;51.844;19.246;2022-07-12T12:57:02;1.00;;;0.73;;
32727;SDS011;55292;51.844;19.246;2022-07-12T13:02:06;1.52;;;0.77;;
32727;SDS011;55292;51.844;19.246;2022-07-12T13:07:10;0.55;;;0.55;;
32727;SDS011;55292;51.844;19.246;2022-07-12T13:12:14;2.58;;;0.68;;
32727;SDS011;55292;51.844;19.246;2022-07-12T13:17:17;1.85;;;0.68;;
32727;SDS011;55292;51.844;19.246;2022-07-12T13:22:20;1.40;;;0.60;;
32727;SDS011;55292;51.844;19.246;2022-07-12T13:27:22;0.70;;;0.70;;
32727;SDS011;55292;51.844;19.246;2022-07-12T13:32:25;1.73;;;0.50;;
32727;SDS011;55292;51.844;19.246;2022-07-12T13:37:27;3.92;;;0.88;;
32727;SDS011;55292;51.844;19.246;2022-07-12T13:42:30;0.70;;;0.70;;
32727;SDS011;55292;51.844;19.246;2022-07-12T13:47:33;1.05;;;0.88;;
32727;SDS011;55292;51.844;19.246;2022-07-12T13:52:36;2.42;;;0.70;;
32727;SDS011;55292;51.844;19.246;2022-07-12T13:57:40;2.10;;;0.50;;
32727;SDS011;55292;51.844;19.246;2022-07-12T14:02:44;3.42;;;0.60;;
32727;SDS011;55292;51.844;19.246;2022-07-12T14:07:56;0.50;;;0.40;;
32727;SDS011;55292;51.844;19.246;2022-07-12T14:12:58;3.88;;;0.80;;
32727;SDS011;55292;51.844;19.246;2022-07-12T14:18:02;3.13;;;0.60;;
32727;SDS011;55292;51.844;19.246;2022-07-12T14:23:06;2.58;;;0.60;;
32727;SDS011;55292;51.844;19.246;2022-07-12T14:28:10;1.83;;;0.82;;
32727;SDS011;55292;51.844;19.246;2022-07-12T14:33:13;1.98;;;0.52;;
32727;SDS011;55292;51.844;19.246;2022-07-12T14:38:15;1.63;;;0.70;;
32727;SDS011;55292;51.844;19.246;2022-07-12T14:43:18;1.50;;;0.60;;
32727;SDS011;55292;51.844;19.246;2022-07-12T14:48:22;1.25;;;0.50;;
32727;SDS011;55292;51.844;19.246;2022-07-12T14:53:24;2.03;;;0.60;;
32727;SDS011;55292;51.844;19.246;2022-07-12T14:58:28;0.68;;;0.50;;
32727;SDS011;55292;51.844;19.246;2022-07-12T15:03:32;0.88;;;0.80;;
32727;SDS011;55292;51.844;19.246;2022-07-12T15:08:36;4.20;;;0.80;;
32727;SDS011;55292;51.844;19.246;2022-07-12T15:13:39;0.98;;;0.52;;
32727;SDS011;55292;51.844;19.246;2022-07-12T15:18:41;2.60;;;0.75;;
32727;SDS011;55292;51.844;19.246;2022-07-12T15:23:44;0.77;;;0.77;;
32727;SDS011;55292;51.844;19.246;2022-07-12T15:28:55;0.85;;;0.60;;
32727;SDS011;55292;51.844;19.246;2022-07-12T15:34:04;4.28;;;0.68;;
32727;SDS011;55292;51.844;19.246;2022-07-12T15:39:07;1.70;;;0.80;;
32727;SDS011;55292;51.844;19.246;2022-07-12T15:44:09;1.05;;;0.70;;
32727;SDS011;55292;51.844;19.246;2022-07-12T15:49:12;1.17;;;0.93;;
32727;SDS011;55292;51.844;19.246;2022-07-12T15:54:15;2.38;;;0.60;;
32727;SDS011;55292;51.844;19.246;2022-07-12T15:59:18;0.70;;;0.52;;
32727;SDS011;55292;51.844;19.246;2022-07-12T16:04:21;0.85;;;0.70;;
32727;SDS011;55292;51.844;19.246;2022-07-12T16:09:23;23.90;;;2.50;;
32727;SDS011;55292;51.844;19.246;2022-07-12T16:14:26;0.93;;;0.80;;
32727;SDS011;55292;51.844;19.246;2022-07-12T16:19:30;3.05;;;1.10;;
32727;SDS011;55292;51.844;19.246;2022-07-12T16:24:33;1.17;;;0.75;;
32727;SDS011;55292;51.844;19.246;2022-07-12T16:29:36;2.63;;;0.75;;
32727;SDS011;55292;51.844;19.246;2022-07-12T16:34:38;1.75;;;1.25;;
32727;SDS011;55292;51.844;19.246;2022-07-12T16:39:45;0.98;;;0.70;;
32727;SDS011;55292;51.844;19.246;2022-07-12T16:44:48;3.65;;;1.40;;
32727;SDS011;55292;51.844;19.246;2022-07-12T16:49:51;2.53;;;0.90;;
32727;SDS011;55292;51.844;19.246;2022-07-12T16:54:56;4.32;;;1.00;;
32727;SDS011;55292;51.844;19.246;2022-07-12T16:59:59;4.70;;;0.82;;
32727;SDS011;55292;51.844;19.246;2022-07-12T17:05:01;3.28;;;0.70;;
32727;SDS011;55292;51.844;19.246;2022-07-12T17:10:05;2.17;;;0.80;;
32727;SDS011;55292;51.844;19.246;2022-07-12T17:15:09;1.80;;;0.90;;
32727;SDS011;55292;51.844;19.246;2022-07-12T17:20:12;3.35;;;0.68;;
32727;SDS011;55292;51.844;19.246;2022-07-12T17:25:15;2.92;;;0.73;;
32727;SDS011;55292;51.844;19.246;2022-07-12T17:30:17;2.85;;;0.90;;
32727;SDS011;55292;51.844;19.246;2022-07-12T17:35:20;2.13;;;0.70;;
32727;SDS011;55292;51.844;19.246;2022-07-12T17:40:23;1.40;;;0.73;;
32727;SDS011;55292;51.844;19.246;2022-07-12T17:45:26;2.85;;;0.65;;
32727;SDS011;55292;51.844;19.246;2022-07-12T17:50:29;1.75;;;0.55;;
32727;SDS011;55292;51.844;19.246;2022-07-12T17:55:32;4.25;;;0.80;;
32727;SDS011;55292;51.844;19.246;2022-07-12T18:00:35;1.77;;;1.05;;
32727;SDS011;55292;51.844;19.246;2022-07-12T18:05:37;1.88;;;0.73;;
32727;SDS011;55292;51.844;19.246;2022-07-12T18:10:40;1.52;;;0.65;;
32727;SDS011;55292;51.844;19.246;2022-07-12T18:15:43;7.32;;;0.77;;
32727;SDS011;55292;51.844;19.246;2022-07-12T18:20:45;1.50;;;0.77;;
32727;SDS011;55292;51.844;19.246;2022-07-12T18:25:54;3.92;;;0.90;;
32727;SDS011;55292;51.844;19.246;2022-07-12T18:30:57;1.58;;;0.95;;
32727;SDS011;55292;51.844;19.246;2022-07-12T18:35:59;1.52;;;0.70;;
32727;SDS011;55292;51.844;19.246;2022-07-12T18:41:02;1.65;;;0.50;;
32727;SDS011;55292;51.844;19.246;2022-07-12T18:46:05;1.60;;;0.70;;
32727;SDS011;55292;51.844;19.246;2022-07-12T18:51:07;1.52;;;0.90;;
32727;SDS011;55292;51.844;19.246;2022-07-12T18:56:10;2.20;;;0.90;;
32727;SDS011;55292;51.844;19.246;2022-07-12T19:01:13;1.08;;;0.98;;
32727;SDS011;55292;51.844;19.246;2022-07-12T19:06:24;2.33;;;0.90;;
32727;SDS011;55292;51.844;19.246;2022-07-12T19:11:27;1.05;;;0.63;;
32727;SDS011;55292;51.844;19.246;2022-07-12T19:16:29;2.25;;;1.13;;
32727;SDS011;55292;51.844;19.246;2022-07-12T19:21:33;1.55;;;1.10;;
32727;SDS011;55292;51.844;19.246;2022-07-12T19:26:38;2.70;;;1.67;;
32727;SDS011;55292;51.844;19.246;2022-07-12T19:31:41;1.73;;;1.30;;
32727;SDS011;55292;51.844;19.246;2022-07-12T19:36:44;2.92;;;1.05;;
32727;SDS011;55292;51.844;19.246;2022-07-12T19:41:47;2.03;;;1.00;;
32727;SDS011;55292;51.844;19.246;2022-07-12T19:46:49;4.80;;;1.15;;
32727;SDS011;55292;51.844;19.246;2022-07-12T19:51:52;1.35;;;1.05;;
32727;SDS011;55292;51.844;19.246;2022-07-12T19:56:55;3.50;;;0.93;;
32727;SDS011;55292;51.844;19.246;2022-07-12T20:01:58;3.63;;;1.02;;
32727;SDS011;55292;51.844;19.246;2022-07-12T20:07:01;2.42;;;0.90;;
32727;SDS011;55292;51.844;19.246;2022-07-12T20:12:04;5.75;;;1.23;;
32727;SDS011;55292;51.844;19.246;2022-07-12T20:17:09;1.52;;;1.00;;
32727;SDS011;55292;51.844;19.246;2022-07-12T20:22:12;1.90;;;1.20;;
32727;SDS011;55292;51.844;19.246;2022-07-12T20:27:14;3.25;;;0.95;;
32727;SDS011;55292;51.844;19.246;2022-07-12T20:32:17;1.35;;;1.02;;
32727;SDS011;55292;51.844;19.246;2022-07-12T20:37:20;2.47;;;0.85;;
32727;SDS011;55292;51.844;19.246;2022-07-12T20:42:24;1.90;;;1.00;;
32727;SDS011;55292;51.844;19.246;2022-07-12T20:47:26;2.25;;;0.93;;
32727;SDS011;55292;51.844;19.246;2022-07-12T20:52:29;2.28;;;1.05;;
32727;SDS011;55292;51.844;19.246;2022-07-12T20:57:33;3.40;;;1.20;;
32727;SDS011;55292;51.844;19.246;2022-07-12T21:02:35;3.15;;;1.10;;
32727;SDS011;55292;51.844;19.246;2022-07-12T21:07:38;1.50;;;1.08;;
32727;SDS011;55292;51.844;19.246;2022-07-12T21:12:41;2.88;;;1.23;;
32727;SDS011;55292;51.844;19.246;2022-07-12T21:17:44;2.75;;;1.13;;
32727;SDS011;55292;51.844;19.246;2022-07-12T21:22:48;3.88;;;1.10;;
32727;SDS011;55292;51.844;19.246;2022-07-12T21:27:52;2.90;;;1.13;;
32727;SDS011;55292;51.844;19.246;2022-07-12T21:32:56;1.85;;;1.10;;
32727;SDS011;55292;51.844;19.246;2022-07-12T21:37:59;4.57;;;1.02;;
32727;SDS011;55292;51.844;19.246;2022-07-12T21:43:03;1.52;;;1.10;;
32727;SDS011;55292;51.844;19.246;2022-07-12T21:48:05;4.78;;;1.25;;
32727;SDS011;55292;51.844;19.246;2022-07-12T21:53:08;2.67;;;1.08;;
32727;SDS011;55292;51.844;19.246;2022-07-12T21:58:11;3.60;;;1.40;;
32727;SDS011;55292;51.844;19.246;2022-07-12T22:03:14;2.58;;;1.20;;
32727;SDS011;55292;51.844;19.246;2022-07-12T22:08:16;1.80;;;1.25;;
32727;SDS011;55292;51.844;19.246;2022-07-12T22:13:19;1.88;;;1.33;;
32727;SDS011;55292;51.844;19.246;2022-07-12T22:18:22;3.22;;;1.25;;
32727;SDS011;55292;51.844;19.246;2022-07-12T22:23:25;2.40;;;1.08;;
32727;SDS011;55292;51.844;19.246;2022-07-12T22:28:28;4.47;;;1.27;;
32727;SDS011;55292;51.844;19.246;2022-07-12T22:33:31;1.60;;;1.20;;
32727;SDS011;55292;51.844;19.246;2022-07-12T22:38:34;1.98;;;1.20;;
32727;SDS011;55292;51.844;19.246;2022-07-12T22:43:37;2.33;;;1.30;;
32727;SDS011;55292;51.844;19.246;2022-07-12T22:48:40;5.00;;;1.23;;
32727;SDS011;55292;51.844;19.246;2022-07-12T22:53:42;2.47;;;1.75;;
32727;SDS011;55292;51.844;19.246;2022-07-12T22:58:45;2.13;;;1.45;;
32727;SDS011;55292;51.844;19.246;2022-07-12T23:03:49;1.95;;;1.30;;
32727;SDS011;55292;51.844;19.246;2022-07-12T23:08:52;3.75;;;1.40;;
32727;SDS011;55292;51.844;19.246;2022-07-12T23:13:55;2.38;;;1.35;;
32727;SDS011;55292;51.844;19.246;2022-07-12T23:18:57;2.00;;;1.50;;
32727;SDS011;55292;51.844;19.246;2022-07-12T23:24:00;2.70;;;1.40;;
32727;SDS011;55292;51.844;19.246;2022-07-12T23:29:02;3.28;;;1.90;;
32727;SDS011;55292;51.844;19.246;2022-07-12T23:34:05;2.38;;;1.70;;
32727;SDS011;55292;51.844;19.246;2022-07-12T23:39:08;3.70;;;1.77;;
32727;SDS011;55292;51.844;19.246;2022-07-12T23:44:10;1.95;;;1.60;;
32727;SDS011;55292;51.844;19.246;2022-07-12T23:49:13;3.28;;;2.10;;
32727;SDS011;55292;51.844;19.246;2022-07-12T23:54:16;3.75;;;2.28;;
32727;SDS011;55292;51.844;19.246;2022-07-12T23:59:19;2.92;;;1.73;;
